createdAt,value
2023-04-09T00:02:29.755Z,5.79
2023-04-09T00:06:37.781Z,5.80
2023-04-09T00:10:45.526Z,5.79
2023-04-09T00:14:53.846Z,5.77
2023-04-09T00:19:02.033Z,5.76
2023-04-09T00:23:11.203Z,5.76
2023-04-09T00:27:21.316Z,5.79
2023-04-09T00:31:30.091Z,5.84
2023-04-09T00:35:38.677Z,5.87
2023-04-09T00:39:47.703Z,5.87
2023-04-09T00:43:55.926Z,5.85
2023-04-09T00:48:06.610Z,5.81
2023-04-09T00:52:14.057Z,5.73
2023-04-09T00:56:22.894Z,5.71
2023-04-09T01:00:31.670Z,5.73
2023-04-09T01:04:40.780Z,5.77
2023-04-09T01:08:56.227Z,5.79
2023-04-09T01:13:11.409Z,5.80
2023-04-09T01:17:22.960Z,5.77
2023-04-09T01:21:33.897Z,5.76
2023-04-09T01:26:02.747Z,5.75
2023-04-09T01:30:12.121Z,5.75
2023-04-09T01:34:22.158Z,5.77
2023-04-09T01:38:30.706Z,5.75
2023-04-09T01:42:40.150Z,5.72
2023-04-09T01:46:49.897Z,5.66
2023-04-09T01:50:57.982Z,5.65
2023-04-09T01:55:05.972Z,5.66
2023-04-09T01:59:14.064Z,5.68
2023-04-09T02:03:25.467Z,5.68
2023-04-09T02:07:38.771Z,5.63
2023-04-09T02:11:47.009Z,5.55
2023-04-09T02:15:56.088Z,5.50
2023-04-09T02:20:03.949Z,5.42
2023-04-09T02:24:11.704Z,5.39
2023-04-09T02:28:19.386Z,5.38
2023-04-09T02:32:26.871Z,5.41
2023-04-09T02:36:34.498Z,5.38
2023-04-09T02:40:43.377Z,5.31
2023-04-09T02:44:53.241Z,5.24
2023-04-09T02:49:01.200Z,5.20
2023-04-09T02:53:09.029Z,5.20
2023-04-09T02:57:16.765Z,5.22
2023-04-09T03:01:25.135Z,5.22
2023-04-09T03:05:32.900Z,5.19
2023-04-09T03:09:40.460Z,5.15
2023-04-09T03:13:48.105Z,5.13
2023-04-09T03:17:55.486Z,5.18
2023-04-09T03:22:02.752Z,5.22
2023-04-09T03:26:10.900Z,5.26
2023-04-09T03:30:19.299Z,5.26
2023-04-09T03:34:27.188Z,5.26
2023-04-09T03:38:34.887Z,5.24
2023-04-09T03:42:45.401Z,5.22
2023-04-09T03:46:54.066Z,5.24
2023-04-09T03:51:02.044Z,5.25
2023-04-09T03:55:12.411Z,5.29
2023-04-09T03:59:20.869Z,5.30
2023-04-09T04:03:29.273Z,5.29
2023-04-09T04:07:37.726Z,5.27
2023-04-09T04:11:45.952Z,5.28
2023-04-09T04:15:54.605Z,5.30
2023-04-09T04:20:02.225Z,5.35
2023-04-09T04:24:10.589Z,5.40
2023-04-09T04:28:18.568Z,5.46
2023-04-09T04:32:26.380Z,5.47
2023-04-09T04:36:34.460Z,5.47
2023-04-09T04:40:42.064Z,5.48
2023-04-09T04:44:50.331Z,5.51
2023-04-09T04:48:57.694Z,5.54
2023-04-09T04:53:05.399Z,5.52
2023-04-09T04:57:13.098Z,5.49
2023-04-09T05:01:21.042Z,5.45
2023-04-09T05:05:29.238Z,5.42
2023-04-09T05:09:37.517Z,5.47
2023-04-09T05:13:45.057Z,5.55
2023-04-09T05:17:52.650Z,5.63
2023-04-09T05:22:00.822Z,5.68
2023-04-09T05:26:08.659Z,5.69
2023-04-09T05:30:17.025Z,5.67
2023-04-09T05:34:24.492Z,5.64
2023-04-09T05:38:32.663Z,5.62
2023-04-09T05:42:40.206Z,5.66
2023-04-09T05:46:47.826Z,5.72
2023-04-09T05:50:56.079Z,5.77
2023-04-09T05:55:03.851Z,5.77
2023-04-09T05:59:11.805Z,5.71
2023-04-09T06:03:19.724Z,5.67
2023-04-09T06:07:27.673Z,5.68
2023-04-09T06:11:35.392Z,5.76
2023-04-09T06:15:43.620Z,5.83
2023-04-09T06:19:51.416Z,5.84
2023-04-09T06:23:59.800Z,5.84
2023-04-09T06:28:07.795Z,5.84
2023-04-09T06:32:15.852Z,5.84
2023-04-09T06:36:24.728Z,5.85
2023-04-09T06:40:33.492Z,5.89
2023-04-09T06:44:41.569Z,5.93
2023-04-09T06:48:49.519Z,5.94
2023-04-09T06:52:57.769Z,5.95
2023-04-09T06:57:08.604Z,5.95
2023-04-09T07:01:17.412Z,5.99
2023-04-09T07:05:25.678Z,6.05
2023-04-09T07:09:35.591Z,6.18
2023-04-09T07:13:43.740Z,6.22
2023-04-09T07:17:51.499Z,6.22
2023-04-09T07:22:00.288Z,6.21
2023-04-09T07:26:09.949Z,6.24
2023-04-09T07:30:19.119Z,6.27
2023-04-09T07:34:27.517Z,6.30
2023-04-09T07:38:35.490Z,6.30
2023-04-09T07:42:44.658Z,6.27
2023-04-09T07:46:53.265Z,6.26
2023-04-09T07:51:01.680Z,6.27
2023-04-09T07:55:11.050Z,6.32
2023-04-09T07:59:19.520Z,6.37
2023-04-09T08:03:28.060Z,6.39
2023-04-09T08:07:35.973Z,6.39
2023-04-09T08:11:46.223Z,6.40
2023-04-09T08:15:54.592Z,6.42
2023-04-09T08:20:02.290Z,6.49
2023-04-09T08:24:11.659Z,6.59
2023-04-09T08:28:19.569Z,6.68
2023-04-09T08:32:28.887Z,6.77
2023-04-09T08:36:37.335Z,6.82
2023-04-09T08:40:45.441Z,6.84
2023-04-09T08:44:54.290Z,6.88
2023-04-09T08:49:01.738Z,6.90
2023-04-09T08:53:10.183Z,6.89
2023-04-09T08:57:18.055Z,6.87
2023-04-09T09:01:27.350Z,6.87
2023-04-09T09:05:43.336Z,6.90
2023-04-09T09:10:00.197Z,7.00
2023-04-09T09:14:09.177Z,7.09
2023-04-09T09:18:18.593Z,7.11
2023-04-09T09:22:28.466Z,7.11
2023-04-09T09:26:41.387Z,7.21
2023-04-09T09:30:49.592Z,7.36
2023-04-09T09:35:06.007Z,7.49
2023-04-09T09:39:14.070Z,7.60
2023-04-09T09:43:23.036Z,7.67
2023-04-09T09:47:32.741Z,7.67
2023-04-09T09:51:42.581Z,7.65
2023-04-09T09:55:52.457Z,7.69
2023-04-09T10:00:04.703Z,7.72
2023-04-09T10:04:16.512Z,7.77
2023-04-09T10:08:24.847Z,7.76
2023-04-09T10:12:32.866Z,7.77
2023-04-09T10:16:40.844Z,7.76
2023-04-09T10:20:56.195Z,7.74
2023-04-09T10:25:03.948Z,7.76
2023-04-09T10:29:14.925Z,7.81
2023-04-09T10:33:27.780Z,7.83
2023-04-09T10:37:36.051Z,7.86
2023-04-09T10:41:49.410Z,7.90
2023-04-09T10:46:01.032Z,7.93
2023-04-09T10:50:24.110Z,7.98
2023-04-09T10:54:49.393Z,8.06
2023-04-09T10:58:57.579Z,8.12
2023-04-09T11:03:24.156Z,8.15
2023-04-09T11:07:33.546Z,8.15
2023-04-09T11:11:43.690Z,8.14
2023-04-09T11:15:51.342Z,8.11
2023-04-09T11:20:00.155Z,8.12
2023-04-09T11:24:08.462Z,8.10
2023-04-09T11:28:17.072Z,8.05
2023-04-09T11:32:24.783Z,7.97
2023-04-09T11:36:32.892Z,7.96
2023-04-09T11:40:48.898Z,7.97
2023-04-09T11:44:57.286Z,7.99
2023-04-09T11:49:05.130Z,8.03
2023-04-09T11:53:26.579Z,8.06
2023-04-09T11:57:45.284Z,8.06
2023-04-09T12:01:54.116Z,8.06
2023-04-09T12:06:04.142Z,8.09
2023-04-09T12:10:14.063Z,8.14
2023-04-09T12:14:24.646Z,8.17
2023-04-09T12:18:32.446Z,8.18
2023-04-09T12:22:41.360Z,8.21
2023-04-09T12:26:51.116Z,8.23
2023-04-09T12:30:59.875Z,8.25
2023-04-09T12:35:08.975Z,8.28
2023-04-09T12:39:17.002Z,8.32
2023-04-09T12:43:24.932Z,8.35
2023-04-09T12:47:33.311Z,8.32
2023-04-09T12:51:41.797Z,8.21
2023-04-09T12:55:49.256Z,8.14
2023-04-09T12:59:57.214Z,8.18
2023-04-09T13:04:06.191Z,8.24
2023-04-09T13:08:16.837Z,8.27
2023-04-09T13:12:25.292Z,8.27
2023-04-09T13:16:33.359Z,8.22
2023-04-09T13:20:41.262Z,8.17
2023-04-09T13:24:48.900Z,8.22
2023-04-09T13:28:56.748Z,8.30
2023-04-09T13:33:04.467Z,8.38
2023-04-09T13:37:12.230Z,8.41
2023-04-09T13:41:21.822Z,8.44
2023-04-09T13:45:29.357Z,8.50
2023-04-09T13:49:37.183Z,8.57
2023-04-09T13:53:46.082Z,8.62
2023-04-09T13:57:53.966Z,8.64
2023-04-09T14:02:01.707Z,8.66
2023-04-09T14:06:10.146Z,8.64
2023-04-09T14:10:18.209Z,8.65
2023-04-09T14:14:26.158Z,8.68
2023-04-09T14:18:33.597Z,8.70
2023-04-09T14:22:43.268Z,8.70
2023-04-09T14:26:51.567Z,8.68
2023-04-09T14:30:59.559Z,8.66
2023-04-09T14:35:08.217Z,8.67
2023-04-09T14:39:15.919Z,8.71
2023-04-09T14:43:24.270Z,8.71
2023-04-09T14:47:31.999Z,8.69
2023-04-09T14:51:39.471Z,8.66
2023-04-09T14:55:49.142Z,8.62
2023-04-09T14:59:56.903Z,8.62
2023-04-09T15:04:04.520Z,8.66
2023-04-09T15:08:13.059Z,8.68
2023-04-09T15:12:21.738Z,8.58
2023-04-09T15:16:32.467Z,8.44
2023-04-09T15:20:42.506Z,8.34
2023-04-09T15:24:50.571Z,8.31
2023-04-09T15:29:05.131Z,8.31
2023-04-09T15:33:13.843Z,8.26
2023-04-09T15:37:21.287Z,8.22
2023-04-09T15:41:32.309Z,8.15
2023-04-09T15:45:40.013Z,8.10
2023-04-09T15:49:47.853Z,8.06
2023-04-09T15:53:55.030Z,8.02
2023-04-09T15:58:02.834Z,8.01
2023-04-09T16:02:11.162Z,8.02
2023-04-09T16:06:19.235Z,8.04
2023-04-09T16:10:27.369Z,8.05
2023-04-09T16:14:34.989Z,8.10
2023-04-09T16:18:42.538Z,8.21
2023-04-09T16:22:50.589Z,8.26
2023-04-09T16:26:59.193Z,8.28
2023-04-09T16:31:07.098Z,8.29
2023-04-09T16:35:15.168Z,8.30
2023-04-09T16:39:23.325Z,8.31
2023-04-09T16:43:31.872Z,8.30
2023-04-09T16:47:40.232Z,8.26
2023-04-09T16:51:48.744Z,8.22
2023-04-09T16:55:56.711Z,8.23
2023-04-09T17:00:05.350Z,8.26
2023-04-09T17:04:13.871Z,8.27
2023-04-09T17:08:24.709Z,8.27
2023-04-09T17:12:32.594Z,8.26
2023-04-09T17:16:40.742Z,8.25
2023-04-09T17:20:49.258Z,8.27
2023-04-09T17:24:57.783Z,8.29
2023-04-09T17:29:06.024Z,8.31
2023-04-09T17:33:14.131Z,8.32
2023-04-09T17:37:22.118Z,8.31
2023-04-09T17:41:30.412Z,8.27
2023-04-09T17:45:38.394Z,8.26
2023-04-09T17:49:46.400Z,8.26
2023-04-09T17:53:56.222Z,8.29
2023-04-09T17:58:04.306Z,8.32
2023-04-09T18:02:12.894Z,8.34
2023-04-09T18:06:21.022Z,8.35
2023-04-09T18:10:29.301Z,8.37
2023-04-09T18:14:37.328Z,8.41
2023-04-09T18:18:45.199Z,8.45
2023-04-09T18:22:55.490Z,8.44
2023-04-09T18:27:04.210Z,8.42
2023-04-09T18:31:13.942Z,8.41
2023-04-09T18:35:23.469Z,8.44
2023-04-09T18:39:55.398Z,8.46
2023-04-09T18:44:04.314Z,8.48
2023-04-09T18:48:12.414Z,8.48
2023-04-09T18:52:21.652Z,8.47
2023-04-09T18:56:35.653Z,8.45
2023-04-09T19:00:52.126Z,8.46
2023-04-09T19:05:07.613Z,8.48
2023-04-09T19:09:21.815Z,8.47
2023-04-09T19:13:33.659Z,8.45
2023-04-09T19:17:47.016Z,8.41
2023-04-09T19:22:10.181Z,8.42
2023-04-09T19:26:19.802Z,8.46
2023-04-09T19:30:31.881Z,8.52
2023-04-09T19:34:42.598Z,8.55
2023-04-09T19:38:54.536Z,8.55
2023-04-09T19:43:04.638Z,8.51
2023-04-09T19:47:23.120Z,8.50
2023-04-09T19:51:36.230Z,8.52
2023-04-09T19:55:49.958Z,8.53
2023-04-09T20:00:02.576Z,8.51
2023-04-09T20:04:14.712Z,8.49
2023-04-09T20:08:23.637Z,8.51
2023-04-09T20:12:31.370Z,8.54
2023-04-09T20:16:39.528Z,8.53
2023-04-09T20:20:47.210Z,8.53
2023-04-09T20:24:55.704Z,8.51
2023-04-09T20:29:03.398Z,8.52
2023-04-09T20:33:13.669Z,8.55
2023-04-09T20:37:22.056Z,8.55
2023-04-09T20:41:29.775Z,8.51
2023-04-09T20:45:37.861Z,8.46
2023-04-09T20:49:46.500Z,8.45
2023-04-09T20:53:54.473Z,8.46
2023-04-09T20:58:03.094Z,8.49
2023-04-09T21:02:11.053Z,8.50
2023-04-09T21:06:19.163Z,8.48
2023-04-09T21:10:26.757Z,8.46
2023-04-09T21:14:34.386Z,8.49
2023-04-09T21:18:42.096Z,8.49
2023-04-09T21:22:49.930Z,8.46
2023-04-09T21:26:59.347Z,8.44
2023-04-09T21:31:07.475Z,8.40
2023-04-09T21:35:15.791Z,8.39
2023-04-09T21:39:23.670Z,8.41
2023-04-09T21:43:31.282Z,8.42
2023-04-09T21:47:38.966Z,8.40
2023-04-09T21:51:48.269Z,8.37
2023-04-09T21:55:55.960Z,8.39
2023-04-09T22:00:05.381Z,8.40
2023-04-09T22:04:13.109Z,8.40
2023-04-09T22:08:20.995Z,8.38
2023-04-09T22:12:29.153Z,8.35
2023-04-09T22:16:36.612Z,8.33
2023-04-09T22:20:43.811Z,8.32
2023-04-09T22:24:51.913Z,8.33
2023-04-09T22:28:59.433Z,8.30
2023-04-09T22:33:13.582Z,8.25
2023-04-09T22:37:21.696Z,8.23
2023-04-09T22:41:29.189Z,8.23
2023-04-09T22:45:37.003Z,8.21
2023-04-09T22:49:44.469Z,8.20
2023-04-09T22:53:52.449Z,8.18
2023-04-09T22:58:02.038Z,8.17
2023-04-09T23:02:09.690Z,8.16
2023-04-09T23:06:18.811Z,8.18
2023-04-09T23:10:26.944Z,8.16
2023-04-09T23:14:35.077Z,8.13
2023-04-09T23:18:43.736Z,8.11
2023-04-09T23:22:51.330Z,8.13
2023-04-09T23:26:59.697Z,8.12
2023-04-09T23:31:07.933Z,8.10
2023-04-09T23:35:15.440Z,8.09
2023-04-09T23:39:23.624Z,8.11
2023-04-09T23:43:31.267Z,8.14
2023-04-09T23:47:39.349Z,8.13
2023-04-09T23:51:47.383Z,8.09
2023-04-09T23:55:54.988Z,8.08
